Pagrindinis puslapis
METAR-TAF:

METAR-TAF

Oro uostai :

Meierwik

Glücksburg, Vokietija

platuma: 54-50N, ilguma: 009-30E, Aukštis: 27 m

Dabartinis oras

Ataskaita buvo paskelbta 29 minutes, ne 09:20 UTC
Vėjas 16 kt iš Vakarų/Šiaurės Vakarų
Temperatūra 16°C
Drėgmė 72%
Slėgis 1027 hPa
Matomumas 10 km arba daugiau
Su prošvaistėmis ne aukštis 2200 ft
Su prošvaistėmis ne aukštis 4300 ft

METAR: ETGG 200920Z 30016KT 9999 BKN022 BKN043 16/11 Q1027 WHT

Laikas: 11:49 (09:49 UTC)


TAF: trūkstamas

Orai ataskaitas ir orų prognozės (METAR, TAF).

turimą stotys yra geltonos ir raudonos taškus žemėlapyje.

Perkelti pele per norėdami pamatyti stoties vardą.

Tada spustelėkite, norėdami matyti oro stebėjimo ir prognozės.

Norėdami pakeisti žemėlapį: spustelėkite ant žalios mygtukų su juodo kryžiaus žemyn,; žalią mygtuką su brūkšneliu, jei norite nutolinti; arba žalių rodyklių gretimoms žemėlapius.


METAR-TAF: